Time;durP1;ratioP1;P1;durP2;ratioP2;P2;SDS_P1;SDS_P2;PMS_P1;PMS_P2;Temp;Humidity;BMP_temperature;BMP_pressure;BME280_temperature;BME280_humidity;BME280_pressure;Samples;Min_cycle;Max_cycle;Signal;HPM_P1;HPM_P2
2022/09/05 00:00:51;;;;;;;0.70;0.70;;;9.20;99.90;;;;;;5057046;28;20213;-66
2022/09/05 00:03:30;;;;;;;0.60;0.60;;;9.20;99.90;;;;;;5057108;28;20664;-66
2022/09/05 00:06:13;;;;;;;0.60;0.60;;;9.30;99.90;;;;;;5057463;28;20202;-66
2022/09/05 00:08:44;;;;;;;0.70;0.70;;;9.30;99.90;;;;;;5079180;28;20208;-66
2022/09/05 00:11:27;;;;;;;0.60;0.60;;;9.30;99.90;;;;;;5097741;28;20743;-66
2022/09/05 00:14:17;;;;;;;0.70;0.70;;;9.30;99.90;;;;;;5097474;28;20571;-66
2022/09/05 00:16:48;;;;;;;0.60;0.60;;;9.30;99.90;;;;;;5097673;28;20191;-65
2022/09/05 00:19:23;;;;;;;0.50;0.50;;;9.30;99.90;;;;;;5095080;28;20199;-66
2022/09/05 00:22:07;;;;;;;0.52;0.52;;;9.40;99.90;;;;;;5077376;28;20689;-66
2022/09/05 00:25:15;;;;;;;0.57;0.57;;;9.30;99.90;;;;;;5076892;28;20224;-66
2022/09/05 00:27:56;;;;;;;0.60;0.60;;;9.40;99.90;;;;;;5048450;28;20232;-66
2022/09/05 00:30:21;;;;;;;0.60;0.60;;;9.40;99.90;;;;;;5097235;28;20288;-66
2022/09/05 00:32:47;;;;;;;0.68;0.68;;;9.40;99.90;;;;;;5096760;28;20231;-65
2022/09/05 00:35:50;;;;;;;0.60;0.60;;;9.40;99.90;;;;;;5097340;28;20306;-66
2022/09/05 00:38:22;;;;;;;0.60;0.60;;;9.40;99.90;;;;;;5096959;28;20188;-66
2022/09/05 00:41:05;;;;;;;0.80;0.80;;;9.40;99.90;;;;;;5097073;28;20547;-66
2022/09/05 00:43:38;;;;;;;0.70;0.70;;;9.40;99.90;;;;;;5077578;28;20236;-66
2022/09/05 00:46:15;;;;;;;0.60;0.60;;;9.40;99.90;;;;;;5076415;28;20197;-66
2022/09/05 00:48:59;;;;;;;0.63;0.63;;;9.40;99.90;;;;;;5076855;28;20205;-66
2022/09/05 00:51:35;;;;;;;0.65;0.65;;;9.40;99.90;;;;;;5076354;28;20193;-66
2022/09/05 00:54:16;;;;;;;0.75;0.75;;;9.40;99.90;;;;;;5076543;28;20196;-66
2022/09/05 00:57:12;;;;;;;0.60;0.60;;;9.40;99.90;;;;;;5076516;28;20197;-66
2022/09/05 00:59:56;;;;;;;0.70;0.70;;;9.40;99.90;;;;;;5076474;28;20192;-66
2022/09/05 01:03:08;;;;;;;0.60;0.60;;;9.40;99.90;;;;;;5076471;28;20254;-65
2022/09/05 01:06:20;;;;;;;0.60;0.60;;;9.40;99.90;;;;;;5027093;28;20802;-65
2022/09/05 01:09:00;;;;;;;0.60;0.60;;;9.40;99.90;;;;;;5056661;28;20251;-65
2022/09/05 01:11:41;;;;;;;0.50;0.50;;;9.40;99.90;;;;;;5038148;28;20201;-65
2022/09/05 01:14:51;;;;;;;0.60;0.60;;;9.40;99.90;;;;;;5056298;28;20210;-65
2022/09/05 01:17:32;;;;;;;0.60;0.60;;;9.50;99.90;;;;;;5044773;28;20217;-65
2022/09/05 01:20:15;;;;;;;0.63;0.63;;;9.50;99.90;;;;;;5055773;28;20182;-65
2022/09/05 01:23:09;;;;;;;0.60;0.60;;;9.50;99.90;;;;;;5058085;28;20200;-65
2022/09/05 01:25:49;;;;;;;0.60;0.60;;;9.50;99.90;;;;;;5096371;28;20196;-65
2022/09/05 01:28:22;;;;;;;0.65;0.65;;;9.40;99.90;;;;;;5095988;28;20727;-65
2022/09/05 01:30:59;;;;;;;0.70;0.70;;;9.40;99.90;;;;;;5096054;28;20188;-65
2022/09/05 01:33:37;;;;;;;0.70;0.70;;;9.40;99.90;;;;;;5095649;28;20290;-65
2022/09/05 01:36:28;;;;;;;0.60;0.60;;;9.40;99.90;;;;;;5095887;28;20658;-65
2022/09/05 01:39:25;;;;;;;0.80;0.80;;;9.40;99.90;;;;;;5069639;28;20204;-65
2022/09/05 01:42:07;;;;;;;0.70;0.70;;;9.40;99.90;;;;;;5090526;28;20659;-65
2022/09/05 01:45:03;;;;;;;0.70;0.70;;;9.40;99.90;;;;;;5075365;28;20659;-65
2022/09/05 01:47:42;;;;;;;0.60;0.60;;;9.50;99.90;;;;;;5057684;28;20197;-65
2022/09/05 01:50:39;;;;;;;0.60;0.60;;;9.50;99.90;;;;;;5075492;28;20561;-65
2022/09/05 01:53:34;;;;;;;0.60;0.60;;;9.50;99.90;;;;;;5075386;28;20221;-65
2022/09/05 01:56:14;;;;;;;0.60;0.60;;;9.50;99.90;;;;;;5057732;28;20193;-65
2022/09/05 01:58:52;;;;;;;0.68;0.68;;;9.50;99.90;;;;;;5075167;28;20610;-65
2022/09/05 02:01:52;;;;;;;0.50;0.50;;;9.50;99.90;;;;;;5074352;28;20188;-66
2022/09/05 02:04:48;;;;;;;0.63;0.63;;;9.50;99.90;;;;;;5075383;28;20533;-65
2022/09/05 02:07:50;;;;;;;0.60;0.60;;;9.50;99.90;;;;;;5075438;28;20197;-65
2022/09/05 02:10:46;;;;;;;0.60;0.60;;;9.50;99.90;;;;;;5075470;28;20196;-64
2022/09/05 02:13:35;;;;;;;0.68;0.68;;;9.50;99.90;;;;;;5057448;28;20207;-65
2022/09/05 02:16:43;;;;;;;0.60;0.60;;;9.50;99.90;;;;;;5046553;28;20223;-65
2022/09/05 02:19:08;;;;;;;0.60;0.60;;;9.50;99.90;;;;;;5015557;28;20190;-65
2022/09/05 02:21:37;;;;;;;0.60;0.60;;;9.50;99.90;;;;;;5033307;28;20199;-65
2022/09/05 02:24:44;;;;;;;0.60;0.60;;;9.50;99.90;;;;;;5033381;28;20210;-65
2022/09/05 02:27:15;;;;;;;0.60;0.60;;;9.50;99.90;;;;;;4935780;29;20217;-65
2022/09/05 02:30:12;;;;;;;0.68;0.68;;;9.50;99.90;;;;;;4935234;29;20699;-65
2022/09/05 02:33:01;;;;;;;0.60;0.60;;;9.50;99.90;;;;;;4930200;29;20610;-65
2022/09/05 02:35:51;;;;;;;0.57;0.57;;;9.50;99.90;;;;;;4935532;29;20704;-65
2022/09/05 02:38:32;;;;;;;0.60;0.60;;;9.50;99.90;;;;;;4935650;29;20674;-65
2022/09/05 02:41:17;;;;;;;0.60;0.60;;;9.50;99.90;;;;;;4925003;29;20788;-65
2022/09/05 02:43:51;;;;;;;0.60;0.60;;;9.50;99.90;;;;;;4915730;29;20224;-64
2022/09/05 02:46:37;;;;;;;0.50;0.50;;;9.50;99.90;;;;;;4915930;29;20202;-65
2022/09/05 02:49:11;;;;;;;0.70;0.70;;;9.50;99.90;;;;;;4926884;28;20207;-65
2022/09/05 02:52:09;;;;;;;0.68;0.68;;;9.50;99.90;;;;;;4973275;28;20611;-65
2022/09/05 02:54:42;;;;;;;0.60;0.60;;;9.50;99.90;;;;;;4957375;28;20366;-64
2022/09/05 02:57:25;;;;;;;0.60;0.60;;;9.50;99.90;;;;;;4957054;28;20176;-65
2022/09/05 03:00:07;;;;;;;0.60;0.60;;;9.50;99.90;;;;;;4973580;28;20359;-64
2022/09/05 03:03:01;;;;;;;0.65;0.65;;;9.40;99.90;;;;;;5063876;28;20196;-65
2022/09/05 03:05:52;;;;;;;0.60;0.60;;;9.40;99.90;;;;;;5036252;28;20208;-65
2022/09/05 03:08:57;;;;;;;0.50;0.50;;;9.40;99.90;;;;;;5044814;28;20232;-65
2022/09/05 03:11:44;;;;;;;0.60;0.60;;;9.40;99.90;;;;;;5053327;28;20197;-65
2022/09/05 03:14:40;;;;;;;0.70;0.70;;;9.40;99.90;;;;;;5073854;28;20243;-65
2022/09/05 03:17:33;;;;;;;0.60;0.60;;;9.50;99.90;;;;;;5091181;28;20563;-65
2022/09/05 03:20:02;;;;;;;0.60;0.60;;;9.50;99.90;;;;;;5093721;28;20211;-65
2022/09/05 03:22:36;;;;;;;0.68;0.68;;;9.50;99.90;;;;;;5094062;28;20188;-65
2022/09/05 03:25:30;;;;;;;0.60;0.60;;;9.50;99.90;;;;;;5094286;28;20557;-64
2022/09/05 03:28:33;;;;;;;0.60;0.60;;;9.50;99.90;;;;;;5093299;28;20307;-66
2022/09/05 03:31:32;;;;;;;0.65;0.65;;;9.40;99.90;;;;;;5094077;28;20222;-65
2022/09/05 03:34:17;;;;;;;0.60;0.60;;;9.40;99.90;;;;;;5093824;28;20581;-65
2022/09/05 03:37:10;;;;;;;0.80;0.80;;;9.40;99.90;;;;;;5086892;28;20207;-65
2022/09/05 03:39:41;;;;;;;0.60;0.60;;;9.40;99.90;;;;;;5073997;28;20279;-65
2022/09/05 03:42:21;;;;;;;0.60;0.60;;;9.40;99.90;;;;;;5073692;28;20200;-65
2022/09/05 03:44:47;;;;;;;0.60;0.60;;;9.40;99.90;;;;;;5073846;28;20682;-64
2022/09/05 03:47:54;;;;;;;0.60;0.60;;;9.40;99.90;;;;;;5073671;28;20197;-65
2022/09/05 03:50:35;;;;;;;0.60;0.60;;;9.40;99.90;;;;;;5062750;28;20211;-65
2022/09/05 03:53:41;;;;;;;0.70;0.70;;;9.40;99.90;;;;;;5073510;28;20718;-65
2022/09/05 03:56:20;;;;;;;0.70;0.70;;;9.30;99.90;;;;;;5055491;28;20216;-65
2022/09/05 03:59:00;;;;;;;0.70;0.70;;;9.40;99.90;;;;;;5073792;28;20203;-65
2022/09/05 04:01:44;;;;;;;0.60;0.60;;;9.40;99.90;;;;;;5073375;28;20224;-65
2022/09/05 04:04:32;;;;;;;0.60;0.60;;;9.40;99.90;;;;;;5073277;28;20250;-64
2022/09/05 04:07:02;;;;;;;0.60;0.60;;;9.40;99.90;;;;;;5073479;28;20188;-65
2022/09/05 04:09:39;;;;;;;0.60;0.60;;;9.40;99.90;;;;;;5073126;28;20196;-65
2022/09/05 04:12:34;;;;;;;0.60;0.60;;;9.40;99.90;;;;;;5078445;28;20188;-66
2022/09/05 04:15:19;;;;;;;0.60;0.60;;;9.40;99.90;;;;;;5063477;28;20223;-65
2022/09/05 04:17:51;;;;;;;0.60;0.60;;;9.40;99.90;;;;;;5092734;28;20303;-65
2022/09/05 04:20:34;;;;;;;0.60;0.60;;;9.40;99.90;;;;;;5093873;28;20193;-65
2022/09/05 04:23:19;;;;;;;0.60;0.60;;;9.40;99.90;;;;;;5093397;28;20195;-64
2022/09/05 04:25:53;;;;;;;0.60;0.60;;;9.40;99.90;;;;;;5093804;28;20199;-65
2022/09/05 04:29:03;;;;;;;0.60;0.60;;;9.40;99.90;;;;;;5092781;28;20231;-65
2022/09/05 04:32:06;;;;;;;0.60;0.60;;;9.40;99.90;;;;;;5051564;28;20732;-65
2022/09/05 04:34:57;;;;;;;0.60;0.60;;;9.40;99.90;;;;;;5072904;28;20218;-66
2022/09/05 04:37:41;;;;;;;0.60;0.60;;;9.50;99.90;;;;;;5072791;28;20950;-65
2022/09/05 04:40:29;;;;;;;0.60;0.60;;;9.50;99.90;;;;;;5074474;28;20275;-66
2022/09/05 04:42:58;;;;;;;0.60;0.60;;;9.50;99.90;;;;;;5076500;28;20272;-65
2022/09/05 04:45:28;;;;;;;0.68;0.68;;;9.60;99.90;;;;;;5076431;28;20195;-66
2022/09/05 04:47:59;;;;;;;0.70;0.70;;;9.60;99.90;;;;;;5076654;28;20188;-66
2022/09/05 04:50:26;;;;;;;0.60;0.60;;;9.60;99.90;;;;;;5058467;28;20200;-66
2022/09/05 04:53:01;;;;;;;0.60;0.60;;;9.70;99.90;;;;;;5076718;28;20701;-65
2022/09/05 04:55:45;;;;;;;0.73;0.73;;;9.70;99.90;;;;;;5076373;28;20211;-65
2022/09/05 04:58:34;;;;;;;0.50;0.50;;;9.70;99.90;;;;;;5076637;28;20582;-65
2022/09/05 05:01:07;;;;;;;0.60;0.60;;;9.70;99.90;;;;;;5076408;28;20199;-65
2022/09/05 05:03:34;;;;;;;0.65;0.65;;;9.70;99.90;;;;;;5058312;28;20196;-65
2022/09/05 05:06:06;;;;;;;0.80;0.80;;;9.70;99.90;;;;;;5076433;28;20270;-66
2022/09/05 05:08:59;;;;;;;0.70;0.70;;;9.80;99.90;;;;;;5084514;28;20706;-65
2022/09/05 05:11:56;;;;;;;0.60;0.60;;;9.80;99.90;;;;;;5096101;28;20774;-66
2022/09/05 05:14:31;;;;;;;0.68;0.68;;;9.80;99.90;;;;;;5095565;28;20667;-66
2022/09/05 05:17:05;;;;;;;0.60;0.60;;;9.80;99.90;;;;;;5095998;28;20698;-66
2022/09/05 05:19:40;;;;;;;0.60;0.60;;;9.80;99.90;;;;;;5077231;28;20192;-67
2022/09/05 05:22:13;;;;;;;0.60;0.60;;;9.80;99.90;;;;;;5095557;28;20188;-66
2022/09/05 05:24:50;;;;;;;0.60;0.60;;;9.80;99.90;;;;;;5095404;28;20230;-66
2022/09/05 05:27:26;;;;;;;0.60;0.60;;;9.90;99.90;;;;;;5095531;28;20196;-66
2022/09/05 05:30:07;;;;;;;0.70;0.70;;;10.00;99.90;;;;;;5054926;28;20205;-65
2022/09/05 05:32:41;;;;;;;0.60;0.60;;;10.00;99.90;;;;;;5037311;28;20193;-65
2022/09/05 05:35:13;;;;;;;0.75;0.75;;;10.10;99.90;;;;;;5055007;28;20730;-66
2022/09/05 05:37:51;;;;;;;0.60;0.60;;;10.10;99.90;;;;;;5054839;28;20315;-65
2022/09/05 05:40:37;;;;;;;0.60;0.60;;;10.20;99.90;;;;;;5054881;28;20193;-65
2022/09/05 05:43:18;;;;;;;0.60;0.60;;;10.20;99.90;;;;;;5055095;28;20204;-65
2022/09/05 05:45:44;;;;;;;0.65;0.65;;;10.30;99.90;;;;;;5044601;28;20594;-65
2022/09/05 05:48:19;;;;;;;0.60;0.60;;;10.30;99.90;;;;;;5075415;28;20189;-66
2022/09/05 05:50:54;;;;;;;0.77;0.77;;;10.30;99.90;;;;;;5075429;28;20189;-65
2022/09/05 05:53:44;;;;;;;0.60;0.60;;;10.40;99.90;;;;;;5074558;28;20623;-66
2022/09/05 05:56:38;;;;;;;0.60;0.60;;;10.40;99.90;;;;;;5075622;28;20280;-66
2022/09/05 05:59:54;;;;;;;0.77;0.77;;;10.50;99.90;;;;;;5055385;28;20189;-65
2022/09/05 06:02:38;;;;;;;0.60;0.60;;;10.50;99.90;;;;;;5041937;28;20202;-66
2022/09/05 06:05:19;;;;;;;0.50;0.50;;;10.60;99.90;;;;;;5054956;28;20564;-66
2022/09/05 06:08:06;;;;;;;1.15;0.82;;;10.60;99.90;;;;;;5055532;28;20240;-66
2022/09/05 06:10:54;;;;;;;0.70;0.70;;;10.70;99.90;;;;;;5054907;28;20193;-66
2022/09/05 06:13:41;;;;;;;0.60;0.60;;;10.80;99.90;;;;;;5054813;28;20239;-66
2022/09/05 06:16:25;;;;;;;0.63;0.63;;;10.90;99.90;;;;;;5054802;28;20228;-65
2022/09/05 06:19:10;;;;;;;0.63;0.63;;;11.00;99.90;;;;;;5054854;28;20204;-65
2022/09/05 06:21:45;;;;;;;0.55;0.55;;;11.00;99.90;;;;;;5037032;28;20552;-66
2022/09/05 06:24:21;;;;;;;0.55;0.55;;;11.10;99.90;;;;;;5054795;28;20238;-66
2022/09/05 06:27:16;;;;;;;0.60;0.60;;;11.20;99.90;;;;;;5054601;28;20564;-66
2022/09/05 06:29:54;;;;;;;0.65;0.65;;;11.30;99.90;;;;;;5054483;28;20575;-66
2022/09/05 06:32:47;;;;;;;0.60;0.60;;;11.40;99.90;;;;;;5054449;28;20201;-66
2022/09/05 06:35:36;;;;;;;0.73;0.73;;;11.40;99.90;;;;;;5054583;28;20252;-65
2022/09/05 06:38:25;;;;;;;0.50;0.50;;;11.50;99.90;;;;;;5054583;28;20193;-66
2022/09/05 06:41:00;;;;;;;0.50;0.50;;;11.60;99.90;;;;;;5054549;28;20190;-66
2022/09/05 06:44:18;;;;;;;0.60;0.60;;;11.70;99.90;;;;;;5053991;28;20208;-66
2022/09/05 06:46:48;;;;;;;0.70;0.70;;;11.80;99.90;;;;;;5054498;28;20209;-65
2022/09/05 06:49:31;;;;;;;3.72;1.50;;;11.80;99.90;;;;;;5054705;28;20269;-66
2022/09/05 06:52:11;;;;;;;0.50;0.50;;;11.90;99.90;;;;;;5054398;28;20209;-66
2022/09/05 06:55:02;;;;;;;22.65;0.95;;;11.90;99.90;;;;;;5054141;28;20722;-66
2022/09/05 06:57:43;;;;;;;0.68;0.68;;;12.00;99.90;;;;;;5054115;28;20193;-66
2022/09/05 07:00:31;;;;;;;0.60;0.60;;;12.00;99.90;;;;;;5054447;28;20225;-66
2022/09/05 07:02:57;;;;;;;0.50;0.50;;;12.10;99.90;;;;;;5053609;28;20688;-66
2022/09/05 07:05:33;;;;;;;0.50;0.50;;;12.20;99.90;;;;;;5053985;28;20272;-66
2022/09/05 07:08:17;;;;;;;0.60;0.60;;;12.30;99.90;;;;;;5054247;28;20197;-66
2022/09/05 07:10:54;;;;;;;0.95;0.65;;;12.40;99.90;;;;;;5054264;28;20189;-66
2022/09/05 07:13:44;;;;;;;0.50;0.50;;;12.50;99.90;;;;;;5054035;28;20204;-66
2022/09/05 07:16:24;;;;;;;0.60;0.60;;;12.60;99.90;;;;;;5069390;28;20208;-66
2022/09/05 07:19:24;;;;;;;0.70;0.70;;;12.70;99.90;;;;;;5053271;28;20189;-66
2022/09/05 07:22:04;;;;;;;0.50;0.50;;;12.70;99.90;;;;;;5053612;28;20198;-66
2022/09/05 07:24:35;;;;;;;0.68;0.68;;;12.80;99.90;;;;;;5053847;28;20201;-66
2022/09/05 07:27:03;;;;;;;0.80;0.80;;;12.80;99.90;;;;;;5035803;28;20682;-66
2022/09/05 07:29:33;;;;;;;0.60;0.60;;;12.90;99.90;;;;;;5071451;28;20722;-66
2022/09/05 07:32:03;;;;;;;0.50;0.50;;;13.00;99.90;;;;;;5073987;28;20595;-66
2022/09/05 07:34:32;;;;;;;0.50;0.50;;;13.20;99.90;;;;;;5072977;28;20204;-66
2022/09/05 07:37:03;;;;;;;0.40;0.40;;;13.30;99.90;;;;;;5073865;28;20717;-66
2022/09/05 07:39:37;;;;;;;0.50;0.50;;;13.40;99.90;;;;;;5055821;28;20194;-66
2022/09/05 07:42:08;;;;;;;0.40;0.40;;;13.50;99.90;;;;;;5060052;28;20189;-67
2022/09/05 07:44:44;;;;;;;0.63;0.63;;;13.80;99.90;;;;;;5073610;28;20608;-66
2022/09/05 07:47:32;;;;;;;0.90;0.90;;;13.90;99.90;;;;;;5073362;28;20233;-66
2022/09/05 07:50:04;;;;;;;0.40;0.40;;;14.00;99.90;;;;;;5054900;28;20193;-66
2022/09/05 07:52:35;;;;;;;0.50;0.50;;;14.00;99.90;;;;;;5073522;28;20242;-66
2022/09/05 07:55:13;;;;;;;0.60;0.60;;;14.10;99.90;;;;;;5073428;28;20710;-66
2022/09/05 07:57:43;;;;;;;0.63;0.60;;;14.20;99.90;;;;;;5071695;28;20215;-66
2022/09/05 08:00:18;;;;;;;1.00;0.70;;;14.20;99.90;;;;;;5073635;28;20188;-66
2022/09/05 08:02:45;;;;;;;0.50;0.50;;;14.40;99.90;;;;;;5073124;28;20555;-66
2022/09/05 08:05:14;;;;;;;0.63;0.63;;;14.50;99.90;;;;;;5073407;28;20208;-66
2022/09/05 08:07:43;;;;;;;0.50;0.50;;;14.50;99.90;;;;;;5073438;28;20211;-66
2022/09/05 08:10:27;;;;;;;0.50;0.50;;;14.60;99.90;;;;;;5073427;28;20279;-66
2022/09/05 08:12:58;;;;;;;0.40;0.40;;;14.70;99.90;;;;;;5072564;28;20725;-67
2022/09/05 08:15:27;;;;;;;0.47;0.47;;;15.00;99.90;;;;;;5074897;28;20208;-66
2022/09/05 08:18:30;;;;;;;0.40;0.40;;;15.10;99.90;;;;;;5077005;28;20539;-66
2022/09/05 08:20:59;;;;;;;0.40;0.40;;;15.30;99.90;;;;;;5077013;28;20251;-67
2022/09/05 08:23:31;;;;;;;0.45;0.45;;;15.30;99.90;;;;;;5076787;28;20640;-67
2022/09/05 08:26:01;;;;;;;0.40;0.40;;;15.60;99.90;;;;;;5077241;28;20185;-67
2022/09/05 08:28:38;;;;;;;0.50;0.50;;;15.80;99.90;;;;;;5076501;28;20719;-67
2022/09/05 08:31:13;;;;;;;0.30;0.30;;;15.90;99.90;;;;;;5077007;28;20191;-67
2022/09/05 08:33:39;;;;;;;0.82;0.60;;;15.90;99.90;;;;;;5075851;28;20216;-67
2022/09/05 08:36:13;;;;;;;0.40;0.40;;;16.10;99.90;;;;;;5055487;28;20193;-67
2022/09/05 08:38:42;;;;;;;0.40;0.40;;;16.30;99.90;;;;;;5056747;28;20267;-67
2022/09/05 08:41:22;;;;;;;0.50;0.50;;;16.30;99.90;;;;;;5056664;28;20209;-67
2022/09/05 08:44:13;;;;;;;0.40;0.40;;;16.40;99.90;;;;;;5039247;28;20661;-67
2022/09/05 08:46:42;;;;;;;0.30;0.30;;;16.30;99.90;;;;;;5068582;28;20201;-67
2022/09/05 08:49:34;;;;;;;0.30;0.30;;;16.50;99.90;;;;;;5076776;28;20227;-67
2022/09/05 08:52:25;;;;;;;1.75;0.77;;;16.70;99.90;;;;;;5056808;28;20679;-67
2022/09/05 08:55:04;;;;;;;0.40;0.40;;;16.90;99.90;;;;;;5073819;28;20299;-67
2022/09/05 08:57:45;;;;;;;0.63;0.50;;;17.10;99.90;;;;;;5075861;28;20588;-67
2022/09/05 09:00:14;;;;;;;0.20;0.20;;;17.20;99.90;;;;;;5075942;28;20272;-67
2022/09/05 09:02:59;;;;;;;0.30;0.30;;;17.30;99.90;;;;;;5074789;28;20564;-67
2022/09/05 09:05:42;;;;;;;0.40;0.40;;;17.30;99.90;;;;;;5076003;28;20189;-67
2022/09/05 09:08:27;;;;;;;0.52;0.52;;;17.30;99.90;;;;;;5076478;28;20204;-67
2022/09/05 09:11:09;;;;;;;0.40;0.40;;;17.30;99.90;;;;;;5075136;28;20239;-67
2022/09/05 09:14:15;;;;;;;0.40;0.40;;;17.50;99.90;;;;;;5075713;28;20721;-67
2022/09/05 09:17:11;;;;;;;0.40;0.40;;;17.80;99.90;;;;;;5076058;28;20209;-66
2022/09/05 09:19:48;;;;;;;0.30;0.30;;;18.20;99.90;;;;;;5075795;28;20294;-67
2022/09/05 09:22:45;;;;;;;0.35;0.35;;;18.40;99.90;;;;;;5076057;28;20189;-67
2022/09/05 09:25:21;;;;;;;0.30;0.30;;;18.50;99.90;;;;;;5076214;28;20650;-67
2022/09/05 09:27:53;;;;;;;0.30;0.30;;;18.50;99.90;;;;;;5074836;28;20235;-67
2022/09/05 09:30:19;;;;;;;0.20;0.20;;;18.50;99.90;;;;;;5071701;28;20552;-67
2022/09/05 09:32:47;;;;;;;6.55;0.60;;;18.60;99.90;;;;;;5055959;28;20596;-67
2022/09/05 09:35:13;;;;;;;1.05;0.50;;;18.80;99.90;;;;;;5055514;28;20209;-67
2022/09/05 09:38:37;;;;;;;0.50;0.50;;;18.80;99.90;;;;;;5056067;28;20193;-66
2022/09/05 09:41:25;;;;;;;0.20;0.20;;;18.50;99.90;;;;;;4994315;28;20204;-68
2022/09/05 09:44:10;;;;;;;0.60;0.60;;;18.90;99.90;;;;;;4994389;28;20237;-67
2022/09/05 09:46:45;;;;;;;0.30;0.30;;;18.90;99.90;;;;;;5054741;28;20236;-67
2022/09/05 09:49:28;;;;;;;0.38;0.30;;;19.10;99.90;;;;;;5072532;28;20193;-67
2022/09/05 09:52:00;;;;;;;0.22;0.22;;;19.30;99.90;;;;;;5054149;28;20206;-67
2022/09/05 09:54:43;;;;;;;0.30;0.30;;;19.60;99.90;;;;;;5055431;28;20201;-66
2022/09/05 09:57:30;;;;;;;0.65;0.65;;;19.80;99.90;;;;;;5055043;28;20228;-67
2022/09/05 10:00:11;;;;;;;0.88;0.47;;;20.10;99.90;;;;;;5054151;28;20672;-67
2022/09/05 10:03:01;;;;;;;0.20;0.20;;;20.20;99.90;;;;;;5055246;28;20196;-67
2022/09/05 10:06:07;;;;;;;0.20;0.20;;;20.50;99.90;;;;;;5055147;28;20189;-67
2022/09/05 10:09:00;;;;;;;0.30;0.30;;;20.80;99.90;;;;;;5049485;28;20221;-67
2022/09/05 10:12:15;;;;;;;1.00;0.43;;;21.10;99.90;;;;;;5042336;28;20764;-67
2022/09/05 10:14:57;;;;;;;0.30;0.30;;;20.70;99.90;;;;;;5054689;28;20217;-67
2022/09/05 10:17:44;;;;;;;0.35;0.35;;;20.10;99.90;;;;;;5054762;28;20194;-67
2022/09/05 10:20:21;;;;;;;0.20;0.20;;;19.70;99.90;;;;;;5054791;28;20201;-67
2022/09/05 10:23:24;;;;;;;0.20;0.20;;;19.40;99.90;;;;;;5054763;28;20197;-67
2022/09/05 10:26:45;;;;;;;0.20;0.20;;;19.20;99.90;;;;;;5051874;28;20266;-67
2022/09/05 10:29:47;;;;;;;0.20;0.20;;;19.00;99.90;;;;;;4992849;28;20343;-67
2022/09/05 10:32:22;;;;;;;0.30;0.30;;;19.30;99.90;;;;;;5054791;28;20197;-67
2022/09/05 10:34:56;;;;;;;1.00;0.45;;;19.40;99.90;;;;;;5054798;28;20565;-67
2022/09/05 10:37:44;;;;;;;0.30;0.30;;;19.70;99.90;;;;;;5054151;28;20534;-67
2022/09/05 10:40:17;;;;;;;0.20;0.20;;;20.00;99.90;;;;;;5054095;28;20663;-67
2022/09/05 10:42:49;;;;;;;0.20;0.20;;;20.20;99.90;;;;;;5066209;28;20276;-67
2022/09/05 10:45:22;;;;;;;0.30;0.30;;;19.90;99.90;;;;;;5074239;28;20212;-67
2022/09/05 10:48:03;;;;;;;0.40;0.40;;;19.70;99.90;;;;;;5074378;28;20272;-68
2022/09/05 10:50:41;;;;;;;0.55;0.52;;;19.50;99.90;;;;;;5074216;28;20238;-67
2022/09/05 10:53:37;;;;;;;0.20;0.20;;;20.10;99.90;;;;;;5073130;28;20196;-67
2022/09/05 10:56:20;;;;;;;0.20;0.20;;;20.90;99.90;;;;;;5002826;28;20243;-67
2022/09/05 10:59:03;;;;;;;0.73;0.40;;;20.60;99.90;;;;;;5074199;28;20252;-67
2022/09/05 11:01:48;;;;;;;0.25;0.25;;;20.20;99.90;;;;;;5073831;28;20196;-67
2022/09/05 11:04:32;;;;;;;0.30;0.30;;;19.80;99.90;;;;;;5074205;28;20193;-67
2022/09/05 11:07:11;;;;;;;0.20;0.20;;;19.50;99.90;;;;;;5063694;28;20664;-67
2022/09/05 11:09:51;;;;;;;0.40;0.40;;;20.00;99.90;;;;;;5054040;28;20193;-67
2022/09/05 11:12:43;;;;;;;0.20;0.20;;;21.10;99.90;;;;;;5053792;28;20247;-67
2022/09/05 11:15:27;;;;;;;0.30;0.30;;;21.40;99.90;;;;;;5053964;28;20205;-67
2022/09/05 11:18:07;;;;;;;0.22;0.22;;;22.40;99.90;;;;;;5054022;28;20189;-67
2022/09/05 11:20:45;;;;;;;0.47;0.30;;;23.00;99.90;;;;;;5052440;28;20243;-68
2022/09/05 11:23:14;;;;;;;0.43;0.40;;;23.20;99.90;;;;;;5053577;28;20189;-67
2022/09/05 11:25:41;;;;;;;0.30;0.30;;;22.70;99.90;;;;;;5054314;28;20220;-66
2022/09/05 11:28:25;;;;;;;0.30;0.30;;;23.00;99.90;;;;;;5060348;28;20236;-67
2022/09/05 11:30:54;;;;;;;0.30;0.30;;;23.20;99.90;;;;;;5055892;28;20254;-67
2022/09/05 11:33:46;;;;;;;0.20;0.20;;;23.20;99.90;;;;;;5073463;28;20200;-68
2022/09/05 11:36:23;;;;;;;0.30;0.30;;;23.10;99.90;;;;;;5073757;28;20193;-68
2022/09/05 11:39:19;;;;;;;0.20;0.20;;;23.30;99.90;;;;;;5073768;28;20218;-70
2022/09/05 11:41:47;;;;;;;0.85;0.40;;;23.50;99.90;;;;;;5072874;28;20193;-67
2022/09/05 11:44:34;;;;;;;0.20;0.20;;;24.10;99.90;;;;;;5073403;28;20197;-67
2022/09/05 11:47:14;;;;;;;0.30;0.30;;;24.30;99.90;;;;;;5073534;28;20566;-67
2022/09/05 11:49:55;;;;;;;0.20;0.20;;;24.20;99.90;;;;;;5072661;28;20201;-69
2022/09/05 11:53:10;;;;;;;0.30;0.30;;;24.30;99.90;;;;;;5073295;28;20679;-69
2022/09/05 11:55:45;;;;;;;0.35;0.35;;;24.40;99.90;;;;;;5073175;28;20205;-67
2022/09/05 11:58:47;;;;;;;0.20;0.20;;;24.10;99.90;;;;;;5073544;28;20259;-67
2022/09/05 12:01:40;;;;;;;0.28;0.28;;;23.20;99.90;;;;;;5055190;28;20658;-68
2022/09/05 12:04:25;;;;;;;0.20;0.20;;;22.40;99.90;;;;;;5073320;28;20196;-67
2022/09/05 12:07:04;;;;;;;0.20;0.20;;;21.60;99.90;;;;;;5072689;28;20583;-68
2022/09/05 12:09:54;;;;;;;0.30;0.30;;;21.10;99.90;;;;;;5072599;28;20188;-67
2022/09/05 12:12:48;;;;;;;0.20;0.20;;;20.90;99.90;;;;;;5073302;28;20192;-68
2022/09/05 12:15:33;;;;;;;0.65;0.30;;;21.00;99.90;;;;;;5055097;28;20217;-67
2022/09/05 12:18:06;;;;;;;0.20;0.20;;;20.80;99.90;;;;;;5055368;28;20192;-67
2022/09/05 12:20:52;;;;;;;0.30;0.30;;;21.20;99.90;;;;;;5089125;28;20572;-67
2022/09/05 12:23:18;;;;;;;0.30;0.30;;;21.40;99.90;;;;;;5093687;28;20595;-69
2022/09/05 12:26:07;;;;;;;0.22;0.22;;;21.50;99.90;;;;;;5093566;28;20214;-67
2022/09/05 12:28:47;;;;;;;0.28;0.28;;;21.80;99.90;;;;;;5093180;28;20232;-67
2022/09/05 12:31:37;;;;;;;0.40;0.40;;;22.30;99.90;;;;;;5084808;28;20208;-67
2022/09/05 12:34:09;;;;;;;0.30;0.30;;;22.70;99.90;;;;;;5073407;28;20201;-68
2022/09/05 12:36:41;;;;;;;0.63;0.50;;;22.60;99.90;;;;;;5055156;28;20660;-67
2022/09/05 12:39:37;;;;;;;0.30;0.30;;;22.00;99.90;;;;;;5072824;28;20199;-68
2022/09/05 12:42:22;;;;;;;0.40;0.30;;;21.80;99.90;;;;;;5065009;28;20194;-68
2022/09/05 12:45:07;;;;;;;0.20;0.20;;;21.20;99.90;;;;;;5053297;28;20541;-67
2022/09/05 12:47:51;;;;;;;0.20;0.20;;;21.10;99.90;;;;;;5052948;28;20606;-67
2022/09/05 12:50:19;;;;;;;0.30;0.30;;;21.10;99.90;;;;;;5035322;28;20653;-67
2022/09/05 12:52:50;;;;;;;0.20;0.20;;;21.10;99.90;;;;;;5052993;28;20190;-67
2022/09/05 12:55:15;;;;;;;0.25;0.25;;;21.00;99.90;;;;;;5034754;28;20601;-67
2022/09/05 12:57:43;;;;;;;0.20;0.20;;;21.30;99.90;;;;;;5053237;28;20268;-67
2022/09/05 13:00:12;;;;;;;0.40;0.40;;;21.60;99.90;;;;;;5052664;28;20244;-67
2022/09/05 13:02:44;;;;;;;0.20;0.20;;;21.80;99.90;;;;;;5054386;28;20212;-67
2022/09/05 13:05:15;;;;;;;0.43;0.30;;;21.90;99.90;;;;;;5056567;28;20190;-68
2022/09/05 13:07:43;;;;;;;0.20;0.20;;;21.60;99.90;;;;;;5056210;28;20190;-67
2022/09/05 13:10:22;;;;;;;0.20;0.20;;;21.50;99.90;;;;;;5056624;28;20190;-67
2022/09/05 13:12:53;;;;;;;0.10;0.10;;;21.50;99.90;;;;;;5056471;28;20641;-67
2022/09/05 13:15:35;;;;;;;0.28;0.28;;;21.10;99.90;;;;;;5056060;28;20205;-68
2022/09/05 13:18:27;;;;;;;0.20;0.20;;;21.00;99.90;;;;;;5056334;28;20196;-67
2022/09/05 13:21:06;;;;;;;0.10;0.10;;;21.10;99.90;;;;;;5049320;28;20283;-68
2022/09/05 13:23:32;;;;;;;0.20;0.20;;;20.80;99.90;;;;;;5056190;28;20224;-67
2022/09/05 13:26:04;;;;;;;4.55;0.55;;;20.70;99.90;;;;;;5056481;28;20225;-67
2022/09/05 13:28:57;;;;;;;0.80;0.45;;;20.50;99.90;;;;;;5072844;28;20233;-68
2022/09/05 13:31:41;;;;;;;0.20;0.20;;;20.50;99.90;;;;;;5057634;28;20220;-68
2022/09/05 13:34:35;;;;;;;0.30;0.30;;;20.30;99.90;;;;;;5075445;28;20699;-66
2022/09/05 13:37:29;;;;;;;0.30;0.30;;;20.30;99.90;;;;;;5076151;28;20228;-66
2022/09/05 13:40:18;;;;;;;0.30;0.30;;;20.30;99.90;;;;;;5075712;28;20200;-66
2022/09/05 13:43:15;;;;;;;0.52;0.40;;;20.40;99.90;;;;;;5075422;28;20185;-66
2022/09/05 13:46:31;;;;;;;0.20;0.20;;;20.50;99.90;;;;;;5064767;28;20212;-66
2022/09/05 13:49:02;;;;;;;0.47;0.30;;;20.70;99.90;;;;;;5070547;28;20212;-66
2022/09/05 13:51:42;;;;;;;0.25;0.25;;;20.70;99.90;;;;;;5075420;28;20197;-66
2022/09/05 13:54:38;;;;;;;0.20;0.20;;;21.00;99.90;;;;;;5075514;28;20192;-66
2022/09/05 13:57:19;;;;;;;0.28;0.22;;;20.90;99.90;;;;;;5075236;28;20189;-67
2022/09/05 14:00:19;;;;;;;0.32;0.30;;;20.70;99.90;;;;;;5057806;28;20219;-66
2022/09/05 14:03:03;;;;;;;0.20;0.20;;;20.50;99.90;;;;;;5037461;28;20216;-66
2022/09/05 14:05:43;;;;;;;0.20;0.20;;;20.10;99.90;;;;;;5054886;28;20196;-66
2022/09/05 14:09:03;;;;;;;0.35;0.35;;;19.80;99.90;;;;;;5055353;28;20193;-66
2022/09/05 14:12:01;;;;;;;0.30;0.30;;;19.50;99.90;;;;;;5022042;28;20208;-66